Portada
METAR-TAF:

METAR-TAF

Aeropuertos :

Olney-Noble Airport

Olney-Noble, Illinois, Estados Unidos

latitud: 38-43-19N, longitud: 088-10-35W, altitud: 147 m

Observación

El informe se hizo hace 33 minutos, a las 19:10 UTC
Viento 4 kt del sur
Temperatura 33°C
Humedad 41%
Presión 1023 hPa
Visibilidad: 16.1 km
Nubes dispersas a una altura de 5000 ft

METAR: KOLY 191910Z AUTO 17004KT 10SM SCT050 33/18 A3022 RMK AO2 T03270181

Hora: 14:43 (19:43 UTC)


TAF: falta

Observaciones y pronósticos meteorológicos de más de 4000 aeropuertos (mensajes METAR y TAF).

Los puntos amarillos y rojos representan las estaciones disponibles.

Ponga el ratón en el punto deseado para ver el nombre de la estación.

Haga clic para ver las observaciones y los pronósticos meteorológicos.

Para cambiar el mapa : haga clic en los botones verdes con una cruz de color negro para hacer un zoom, en el botón verde con un guión para alejar o en las flechas verdes para mapas adyacentes.


METAR-TAF: